BFO weather

Buffalo Range Airport
Chiredzi, Masvingo Province, Zimbabwe

Public forecast

Using degrees Celsius for public forecast. Weather courtesy of forecast.io.

METAR (pilot weather report)

Report is more than 6 hours old.

Retrieved 2019/03/23 09:00 UTC (3 days ago):

FVCZ 230900Z 06003KT 9999 FEW015 BKN120 24/22 Q1024

TAF (pilot weather forecast)

Forecast is more than 12 hours old.

Retrieved 2015/02/14 05:42 UTC (4 years ago):

TAF FVCZ 140400Z 1405/1515 VRB04KT CAVOK